Tiempo atmosférico en la estación meteorológica de Alhama de Murcia, Murcia (157 m.)



Fecha
DESCASC
Temp. máxima en grados centígrados (hora)
DESCASC
Temp. mínima en grados centígrados (hora)
DESCASC
Temp. media en grados centígrados
DESCASC
Racha de viento máxima en m/sg (hora)
DESCASC
Velocidad máxima media en intervalos de 10 minutos(hora)
DESCASC
Precipitaciones diarias en mm
DESCASC
Precipitaciones de 00:00 a 06:00 en mm
DESCASC
Precipitaciones de 06:00 a 12:00 en mm
DESCASC
Precipitaciones de 12:00 a 18:00 en mm
DESCASC
Precipitaciones de 18:00 a 24:00 en mm
DESCASC
21-02-2019 17.5 (15:40) 5.5 (23:10) 11.5 4.17 (12:00) 2.78 (20:30) 0 0 0 0 0
20-02-2019 17.5 (15:20) 5.8 (01:30) 11.7 5.28 (17:40) 3.33 (17:40) 0 0 0 0 0
19-02-2019 17 (15:50) 4.9 (08:00) 11 7.22 (17:30) 4.17 (17:40) 0 0 0 0 0
18-02-2019 16.5 (16:00) 6.3 (02:30) 11.4 7.5 (14:40) 4.44 (14:50) 0 0 0 0 0
17-02-2019 15.8 (16:20) 3.8 (00:00) 9.8 6.94 (13:50) 4.17 (13:50) 0 0 0 0 0
16-02-2019 16.4 (15:50) 5 (00:00) 10.7 8.89 (12:50) 5 (13:00) 0 0 0 0 0
15-02-2019 15.7 (15:20) 8 (00:00) 11.8 7.22 (17:50) 4.44 (18:30) 0 0 0 0 0
14-02-2019 15.8 (15:20) 7.2 (00:00) 11.5 7.22 (17:10) 4.17 (13:10) 0 0 0 0 0
13-02-2019 16.2 (16:00) 3.3 (00:00) 9.8 6.67 (16:20) 3.89 (16:40) 0 0 0 0 0
12-02-2019 15.5 (16:30) 5.1 (00:00) 10.3 5.28 (12:00) 3.33 (12:00) 0 0 0 0 0
11-02-2019 19.9 (13:00) 5.1 (00:00) 12.5 7.78 (13:10) 4.72 (13:10) 0 0 0 0 0
10-02-2019 20.3 (14:40) 2.4 (00:00) 11.3 7.22 (16:40) 4.72 (16:40) 0 0 0 0 0
09-02-2019 22.2 (15:50) 3.1 (00:00) 12.7 8.06 (18:20) 5 (16:10) 0 0 0 0 0
08-02-2019 21.5 (16:20) 4.1 (00:00) 12.8 6.67 (18:00) 3.89 (18:00) 0 0 0 0 0
07-02-2019 22.7 (16:00) 4.3 (00:00) 13.5 5.83 (14:20) 3.33 (14:00) 0 0 0 0 0
06-02-2019 22 (15:00) 3.7 (00:00) 12.9 8.06 (16:10) 5.56 (18:10) 0 0 0 0 0
05-02-2019 20.6 (16:40) 1.5 (00:00) 11.1 6.67 (14:40) 3.89 (15:10) 0 0 0 0 0
04-02-2019 18.1 (16:10) 4 (00:00) 11.1 7.22 (16:40) 4.72 (17:10) 0 0 0 0 0
03-02-2019 12.5 (16:30) 7.1 (00:00) 9.8 16.94 (11:20) 10 (11:20) 0 0 0 0 0
02-02-2019 14.1 (14:20) 7.9 (00:00) 11 16.11 (12:20) 8.61 (12:10) 0 0 0 0 0
01-02-2019 20.4 (12:50) 10.4 (00:00) 15.4 16.67 (01:50) 9.17 (02:00) 0 0 0 0 0
31-01-2019 22.4 (15:20) 13.3 (00:00) 17.8 12.78 (19:50) 8.33 (13:30) 0 0 0 0 0
30-01-2019 17.8 (14:20) 6.1 (00:00) 11.9 9.17 (23:59) 5.28 (23:59) 0 0 0 0 0
29-01-2019 19.6 (14:40) 7.1 (00:00) 13.4 8.89 (18:00) 5.28 (17:20) 0 0 0 0 0
28-01-2019 20.9 (15:50) 5.9 (00:00) 13.4 14.17 (18:00) 6.39 (18:10) 0 0 0 0 0
27-01-2019 19.6 (13:00) 2 (00:00) 10.8 12.22 (15:30) 7.22 (15:30) 0 0 0 0 0
26-01-2019 20.5 (16:10) 8.1 (00:00) 14.3 7.5 (16:20) 4.17 (02:40) 0 0 0 0 0
25-01-2019 19.9 (14:50) 11.6 (00:00) 15.8 11.94 (11:50) 6.67 (12:00) 0 0 0 0 0
24-01-2019 19.1 (14:50) 10.8 (00:00) 15 17.5 (13:00) 8.61 (12:50) 0 0 0 0 0

Gráficas

Temp. máximas Temp. mínimas Temp. medias Precipitaciones Rachas de viento máximas Velocidades máximas media en intervalos de 10 minutos

Datos horarios

Fecha y hora oficial Temperatura (ºC) Velocidad del viento (km/h) Dirección del viento Racha (km/h) Dirección de racha Precipitación (mm) Presión (hPa) Tendencia (hPa) Humedad (%)
2019-02-22 23:00:00 7.8 7 Sudoeste 11 Sudoeste 0 -- -- 91
2019-02-22 22:00:00 10.1 8 Sudoeste 26 Sudoeste 0 -- -- 81
2019-02-22 21:00:00 13.4 13 Sudoeste 21 Sudoeste 0 -- -- 64
2019-02-22 20:00:00 11.3 11 Sudoeste 21 Sudoeste 0 -- -- 78
2019-02-22 19:00:00 14 12 Sudoeste 25 Sudoeste 0 -- -- 67
2019-02-22 18:00:00 17.5 13 Sudoeste 26 Sudoeste 0 -- -- 52
2019-02-22 17:00:00 20 13 Sudoeste 26 Sudoeste 0 -- -- 44
2019-02-22 16:00:00 21.2 13 Sudoeste 22 Sudoeste 0 -- -- 40
2019-02-22 15:00:00 22.1 10 Sudoeste 18 Sudoeste 0 -- -- 33
2019-02-22 14:00:00 20.6 8 Oeste 15 Oeste 0 -- -- 29
2019-02-22 13:00:00 19.1 7 Sudoeste 15 Sudoeste 0 -- -- 32
2019-02-22 12:00:00 16 6 Sudoeste 13 Sudoeste 0 -- -- 47
2019-02-22 11:00:00 12.3 5 Oeste 9 Oeste 0 -- -- 59
2019-02-22 10:00:00 7.8 3 Oeste 9 Sudoeste 0 -- -- 83
2019-02-22 09:00:00 3.6 5 Sudoeste 8 Sur 0 -- -- 100
2019-02-22 08:00:00 1.9 4 Sudoeste 9 Sudoeste 0 -- -- 99
2019-02-22 07:00:00 2.2 3 Nordeste 6 Este 0 -- -- 99
2019-02-22 06:00:00 1.9 0 Calma 5 Sudoeste 0 -- -- 99
2019-02-22 05:00:00 1.8 4 Sudoeste 8 Sudoeste 0 -- -- 98
2019-02-22 04:00:00 3.1 7 Sudoeste 8 Sudoeste 0 -- -- 98
2019-02-22 03:00:00 3.2 2 Sudoeste 4 Sudoeste 0 -- -- 97
2019-02-22 02:00:00 3.6 0 Calma 4 Sur 0 -- -- 96
2019-02-22 01:00:00 4 3 Sudoeste 5 Sudoeste 0 -- -- 94
2019-02-22 00:00:00 5.7 5 Sudoeste 6 Sur 0 -- -- 95
2019-02-21 23:00:00 5.8 0 Calma 7 Sur 0 -- -- 91
2019-02-21 22:00:00 7.2 5 Sudoeste 9 Sudoeste 0 -- -- 88
2019-02-21 21:00:00 8.7 8 Sur 14 Sudoeste 0 -- -- 83
2019-02-21 20:00:00 10.5 5 Sur 15 Sudoeste 0 -- -- 77
2019-02-21 19:00:00 13.1 4 Noroeste 8 Norte 0 -- -- 65
2019-02-21 18:00:00 15.8 6 Nordeste 12 Norte 0 -- -- 53
2019-02-21 17:00:00 16.8 5 Nordeste 12 Nordeste 0 -- -- 51
2019-02-21 16:00:00 17.2 5 Nordeste 14 Norte 0 -- -- 50
2019-02-21 15:00:00 17 3 Sudeste 10 Nordeste 0 -- -- 52
2019-02-21 14:00:00 15.6 5 Norte 13 Norte 0 -- -- 56
2019-02-21 13:00:00 14.5 5 Norte 15 Norte 0 -- -- 61
2019-02-21 12:00:00 13.7 7 Norte 15 Norte 0 -- -- 63
2019-02-21 11:00:00 12.7 6 Nordeste 10 Nordeste 0 -- -- 67
2019-02-21 10:00:00 10.9 5 Nordeste 8 Norte 0 -- -- 75
2019-02-21 09:00:00 9.4 4 Nordeste 10 Este 0 -- -- 82
2019-02-21 08:00:00 8.3 3 Nordeste 8 Norte 0 -- -- 89
2019-02-21 07:00:00 7.4 0 Calma 5 Norte 0 -- -- 96
2019-02-21 06:00:00 6.3 3 Nordeste 5 Nordeste 0 -- -- 95
2019-02-21 05:00:00 6.8 2 Nordeste 5 Nordeste 0 -- -- 93
2019-02-21 04:00:00 8.5 0 Calma 7 Este 0 -- -- 90
2019-02-21 03:00:00 9.3 3 Nordeste 6 Este 0 -- -- 91
2019-02-21 02:00:00 9.1 2 Este 4 Este 0 -- -- 94
2019-02-21 01:00:00 8.5 0 Calma 5 Este 0 -- -- 95
2019-02-21 00:00:00 7.7 5 Este 8 Nordeste 0 -- -- 97
2019-02-20 23:00:00 6.7 3 Este 9 Este 0 -- -- 93
2019-02-20 22:00:00 7.6 4 Este 6 Este 0 -- -- 91
2019-02-20 21:00:00 8.9 2 Sur 8 Este 0 -- -- 87
2019-02-20 20:00:00 10.4 3 Nordeste 10 Noroeste 0 -- -- 81
2019-02-20 19:00:00 13.1 8 Norte 15 Norte 0 -- -- 69
2019-02-20 18:00:00 15.9 5 Norte 19 Norte 0 -- -- 52
2019-02-20 17:00:00 16.9 7 Nordeste 13 Nordeste 0 -- -- 47
2019-02-20 16:00:00 17.3 4 Noroeste 14 Noroeste 0 -- -- 46
2019-02-20 15:00:00 16.6 4 Norte 15 Oeste 0 -- -- 49
2019-02-20 14:00:00 16.1 5 Norte 15 Sudoeste 0 -- -- 52
2019-02-20 13:00:00 14.9 4 Norte 17 Este 0 -- -- 56
2019-02-20 12:00:00 13.4 4 Noroeste 9 Nordeste 0 -- -- 62
2019-02-20 11:00:00 10.9 3 Nordeste 6 Este 0 -- -- 80
2019-02-20 10:00:00 8.3 0 Calma 5 Sudoeste 0 -- -- 89
2019-02-20 09:00:00 7.4 3 Sudoeste 6 Sudoeste 0 -- -- 98
2019-02-20 08:00:00 7.5 5 Nordeste 6 Nordeste 0 -- -- 99
2019-02-20 07:00:00 7.4 3 Nordeste 4 Nordeste 0 -- -- 98
2019-02-20 06:00:00 7.4 3 Nordeste 5 Este 0 -- -- 98
2019-02-20 05:00:00 7.2 3 Nordeste 5 Este 0 -- -- 99
2019-02-20 04:00:00 7.1 4 Nordeste 5 Nordeste 0 -- -- 99
2019-02-20 03:00:00 7 3 Nordeste 4 Este 0 -- -- 99
2019-02-20 02:00:00 6.4 3 Nordeste 3 Nordeste 0 -- -- 98
2019-02-20 01:00:00 6.5 0 Calma 3 Este 0 -- -- 97
2019-02-20 00:00:00 6.4 0 Calma 8 Nordeste 0 -- -- 96
2019-02-19 23:00:00 6.3 4 Este 6 Este 0 -- -- 95
2019-02-19 22:00:00 7.1 3 Nordeste 9 Este 0 -- -- 90
2019-02-19 21:00:00 8.8 5 Este 12 Este 0 -- -- 83
2019-02-19 20:00:00 10.9 5 Este 19 Norte 0 -- -- 75
2019-02-19 19:00:00 12.3 10 Norte 21 Nordeste 0 -- -- 68
2019-02-19 18:00:00 14.7 10 Nordeste 26 Nordeste 0 -- -- 58
2019-02-19 17:00:00 16.1 13 Nordeste 24 Nordeste 0 -- -- 50
2019-02-19 16:00:00 16.9 12 Nordeste 20 Nordeste 0 -- -- 44
2019-02-19 15:00:00 16.5 8 Norte 18 Norte 0 -- -- 47
2019-02-19 14:00:00 15.5 9 Norte 18 Nordeste 0 -- -- 50
2019-02-19 13:00:00 14.5 11 Norte 22 Norte 0 -- -- 55
2019-02-19 12:00:00 13.7 9 Nordeste 16 Nordeste 0 -- -- 62
2019-02-19 11:00:00 12.2 8 Nordeste 13 Nordeste 0 -- -- 67
2019-02-19 10:00:00 9 7 Nordeste 12 Nordeste 0 -- -- 88
2019-02-19 09:00:00 6 6 Nordeste 10 Nordeste 0 -- -- 100
2019-02-19 08:00:00 4.9 7 Nordeste 9 Este 0 -- -- 100
2019-02-19 07:00:00 5.5 6 Nordeste 9 Nordeste 0 -- -- 99
2019-02-19 06:00:00 5.8 4 Nordeste 9 Norte 0 -- -- 99
2019-02-19 05:00:00 6.8 4 Nordeste 6 Nordeste 0 -- -- 98
2019-02-19 04:00:00 7.5 4 Norte 8 Norte 0 -- -- 98
2019-02-19 03:00:00 7.9 4 Norte 8 Nordeste 0 -- -- 97
2019-02-19 02:00:00 8.1 6 Nordeste 8 Nordeste 0 -- -- 96
2019-02-19 01:00:00 9.1 6 Este 12 Este 0 -- -- 93
2019-02-19 00:00:00 9.1 5 Nordeste 9 Este 0 -- -- 96
2019-02-18 23:00:00 8.7 5 Nordeste 10 Nordeste 0 -- -- 96
2019-02-18 22:00:00 7.8 2 Nordeste 6 Norte 0 -- -- 95
2019-02-18 21:00:00 8.2 5 Norte 10 Nordeste 0 -- -- 93
2019-02-18 20:00:00 9.3 6 Nordeste 10 Norte 0 -- -- 89
2019-02-18 19:00:00 11.9 8 Nordeste 21 Nordeste 0 -- -- 78
2019-02-18 18:00:00 14.1 13 Nordeste 23 Norte 0 -- -- 68
2019-02-18 17:00:00 15.8 10 Nordeste 26 Norte 0 -- -- 55
2019-02-18 16:00:00 16.5 12 Norte 24 Nordeste 0 -- -- 57
2019-02-18 15:00:00 16.2 13 Nordeste 27 Nordeste 0 -- -- 59
2019-02-18 14:00:00 15.6 12 Nordeste 24 Nordeste 0 -- -- 63
2019-02-18 13:00:00 14.5 10 Nordeste 17 Nordeste 0 -- -- 67
2019-02-18 12:00:00 12 8 Nordeste 17 Nordeste 0 -- -- 78
2019-02-18 11:00:00 10.8 6 Nordeste 12 Nordeste 0 -- -- 85
2019-02-18 10:00:00 9.3 4 Norte 6 Norte 0 -- -- 98
2019-02-18 09:00:00 8.3 3 Norte 6 Nordeste 0 -- -- 99
2019-02-18 08:00:00 7.8 4 Nordeste 12 Este 0 -- -- 99
2019-02-18 07:00:00 8 9 Este 13 Nordeste 0 -- -- 100
2019-02-18 06:00:00 6.8 5 Nordeste 5 Norte 0 -- -- 100
2019-02-18 05:00:00 7 4 Norte 7 Nordeste 0 -- -- 99
2019-02-18 04:00:00 7.4 4 Nordeste 6 Nordeste 0 -- -- 99
2019-02-18 03:00:00 7.9 4 Este 6 Este 0 -- -- 100
2019-02-18 02:00:00 7 6 Nordeste 10 Este 0 -- -- 98
2019-02-18 01:00:00 8.5 4 Nordeste 8 Nordeste 0 -- -- 97
2019-02-18 00:00:00 6.5 3 Nordeste 10 Nordeste 0 -- -- 96
2019-02-17 23:00:00 6.1 2 Nordeste 6 Nordeste 0 -- -- 95
2019-02-17 22:00:00 7.4 2 Nordeste 8 Nordeste 0 -- -- 93
2019-02-17 21:00:00 7.7 5 Este 10 Nordeste 0 -- -- 90
2019-02-17 20:00:00 9.5 6 Nordeste 13 Nordeste 0 -- -- 86
2019-02-17 19:00:00 11.9 9 Nordeste 18 Norte 0 -- -- 76
2019-02-17 18:00:00 14 11 Nordeste 20 Nordeste 0 -- -- 67
2019-02-17 17:00:00 15.3 10 Norte 20 Nordeste 0 -- -- 61
2019-02-17 16:00:00 15.5 11 Nordeste 21 Nordeste 0 -- -- 58
2019-02-17 15:00:00 14.7 12 Nordeste 24 Nordeste 0 -- -- 60
2019-02-17 14:00:00 14 15 Nordeste 25 Nordeste 0 -- -- 59
2019-02-17 13:00:00 12.4 13 Nordeste 17 Norte 0 -- -- 57
2019-02-17 12:00:00 10.7 9 Norte 14 Nordeste 0 -- -- 62
2019-02-17 11:00:00 8.4 8 Nordeste 14 Nordeste 0 -- -- 72
2019-02-17 10:00:00 6.7 8 Nordeste 13 Nordeste 0 -- -- 83
2019-02-17 09:00:00 5.4 6 Nordeste 9 Nordeste 0 -- -- 91
2019-02-17 08:00:00 4.6 6 Nordeste 9 Nordeste 0 -- -- 96
2019-02-17 07:00:00 3.8 7 Nordeste 10 Nordeste 0 -- -- 98
2019-02-17 06:00:00 4.3 7 Nordeste 11 Nordeste 0 -- -- 99
2019-02-17 05:00:00 3.9 5 Nordeste 10 Nordeste 0 -- -- 98
2019-02-17 04:00:00 4.5 6 Nordeste 9 Nordeste 0 -- -- 98
2019-02-17 03:00:00 4 4 Nordeste 7 Nordeste 0 -- -- 96
2019-02-17 02:00:00 4.9 3 Nordeste 8 Nordeste 0 -- -- 97
2019-02-17 01:00:00 4.5 0 Calma 5 Sudoeste 0 -- -- 96
2019-02-17 00:00:00 5.1 2 Nordeste 6 Este 0 -- -- 96
2019-02-16 23:00:00 5.3 3 Nordeste 6 Nordeste 0 -- -- 94
2019-02-16 22:00:00 6.2 5 Nordeste 8 Norte 0 -- -- 89
2019-02-16 21:00:00 7.3 4 Nordeste 11 Nordeste 0 -- -- 82
2019-02-16 20:00:00 8.7 5 Norte 12 Este 0 -- -- 74
2019-02-16 19:00:00 11.4 7 Nordeste 19 Norte 0 -- -- 63
2019-02-16 18:00:00 14.2 13 Nordeste 26 Nordeste 0 -- -- 50
2019-02-16 17:00:00 15.7 15 Nordeste 26 Norte 0 -- -- 49
2019-02-16 16:00:00 16.3 15 Norte 27 Nordeste 0 -- -- 48
2019-02-16 15:00:00 15.8 12 Norte 22 Nordeste 0 -- -- 54
2019-02-16 14:00:00 14.4 16 Nordeste 26 Norte 0 -- -- 60
2019-02-16 13:00:00 13.9 18 Norte 32 Norte 0 -- -- 61
2019-02-16 12:00:00 13.2 13 Norte 19 Norte 0 -- -- 65
2019-02-16 11:00:00 11.6 9 Norte 15 Norte 0 -- -- 73
2019-02-16 10:00:00 10.8 8 Norte 12 Norte 0 -- -- 79
2019-02-16 09:00:00 9.8 4 Norte 10 Nordeste 0 -- -- 84
2019-02-16 08:00:00 9.2 6 Nordeste 13 Nordeste 0 -- -- 87
2019-02-16 07:00:00 9.3 7 Nordeste 14 Nordeste 0 -- -- 89
2019-02-16 06:00:00 8.8 8 Nordeste 14 Nordeste 0 -- -- 94
2019-02-16 05:00:00 9.6 6 Nordeste 12 Nordeste 0 -- -- 90
2019-02-16 04:00:00 9.9 7 Nordeste 12 Nordeste 0 -- -- 88
2019-02-16 03:00:00 10.3 7 Nordeste 12 Nordeste 0 -- -- 86
2019-02-16 02:00:00 10.5 8 Nordeste 16 Norte 0 -- -- 88
2019-02-16 01:00:00 10.9 9 Nordeste 17 Nordeste 0 -- -- 87
2019-02-16 00:00:00 11.1 8 Norte 16 Nordeste 0 -- -- 86
2019-02-15 23:00:00 11.1 10 Nordeste 17 Nordeste 0 -- -- 85
2019-02-15 22:00:00 10.3 5 Nordeste 10 Nordeste 0 -- -- 88
2019-02-15 21:00:00 9.3 8 Nordeste 10 Nordeste 0 -- -- 90
2019-02-15 20:00:00 10.1 7 Norte 18 Nordeste 0 -- -- 85
2019-02-15 19:00:00 11.8 12 Nordeste 25 Nordeste 0 -- -- 77
2019-02-15 18:00:00 13.7 15 Nordeste 26 Nordeste 0 -- -- 68
2019-02-15 17:00:00 15.3 14 Nordeste 21 Nordeste 0 -- -- 62
2019-02-15 16:00:00 15.7 12 Norte 24 Nordeste 0 -- -- 60
2019-02-15 15:00:00 15.1 13 Norte 22 Norte 0 -- -- 59
2019-02-15 14:00:00 14.6 10 Nordeste 19 Nordeste 0 -- -- 59
2019-02-15 13:00:00 13.6 12 Nordeste 23 Nordeste 0 -- -- 62
2019-02-15 12:00:00 13.4 11 Nordeste 19 Nordeste 0 -- -- 63
2019-02-15 11:00:00 11.5 10 Nordeste 18 Norte 0 -- -- 69
2019-02-15 10:00:00 10.6 10 Nordeste 17 Nordeste 0 -- -- 75
2019-02-15 09:00:00 9.8 6 Nordeste 9 Nordeste 0 -- -- 82
2019-02-15 08:00:00 9.1 6 Nordeste 11 Nordeste 0 -- -- 85
2019-02-15 07:00:00 9 7 Nordeste 10 Nordeste 0 -- -- 89
2019-02-15 06:00:00 8.6 6 Nordeste 9 Nordeste 0 -- -- 93
2019-02-15 05:00:00 9.1 4 Nordeste 6 Nordeste 0 -- -- 92
2019-02-15 04:00:00 9.3 4 Nordeste 6 Nordeste 0 -- -- 91
2019-02-15 03:00:00 9.4 4 Nordeste 6 Nordeste 0 -- -- 91
2019-02-15 02:00:00 9.3 3 Nordeste 6 Nordeste 0 -- -- 91
2019-02-15 01:00:00 8.9 4 Nordeste 6 Nordeste 0 -- -- 94
2019-02-15 00:00:00 8 4 Nordeste 5 Nordeste 0 -- -- 95
2019-02-14 23:00:00 7.9 3 Nordeste 6 Nordeste 0 -- -- 95
2019-02-14 22:00:00 7.3 4 Nordeste 9 Nordeste 0 -- -- 93
2019-02-14 21:00:00 8 7 Nordeste 14 Nordeste 0 -- -- 89
2019-02-14 20:00:00 10.1 10 Nordeste 15 Nordeste 0 -- -- 79
2019-02-14 19:00:00 11.2 10 Nordeste 19 Nordeste 0 -- -- 77
2019-02-14 18:00:00 13 14 Nordeste 26 Nordeste 0 -- -- 68
2019-02-14 17:00:00 14.8 14 Nordeste 24 Nordeste 0 -- -- 59
2019-02-14 16:00:00 15.5 11 Nordeste 24 Este 0 -- -- 55
2019-02-14 15:00:00 15.6 12 Nordeste 26 Nordeste 0 -- -- 54
2019-02-14 14:00:00 15.1 13 Nordeste 23 Nordeste 0 -- -- 56
2019-02-14 13:00:00 14.8 14 Nordeste 25 Nordeste 0 -- -- 56
2019-02-14 12:00:00 14 12 Nordeste 22 Este 0 -- -- 58
2019-02-14 11:00:00 12.8 8 Nordeste 15 Nordeste 0 -- -- 63
2019-02-14 10:00:00 11.1 6 Nordeste 9 Nordeste 0 -- -- 70
2019-02-14 09:00:00 7.9 0 Calma 6 Este 0 -- -- 92
2019-02-14 08:00:00 7.4 4 Nordeste 7 Este 0 -- -- 90
2019-02-14 07:00:00 7.3 3 Nordeste 5 Nordeste 0 -- -- 91
2019-02-14 06:00:00 7.7 4 Nordeste 4 Norte 0 -- -- 90
2019-02-14 05:00:00 8.3 0 Calma 4 Nordeste 0 -- -- 88
2019-02-14 04:00:00 8.9 0 Calma 5 Este 0 -- -- 86
2019-02-14 03:00:00 8.9 3 Nordeste 5 Nordeste 0 -- -- 86
2019-02-14 02:00:00 8.7 0 Calma 4 Nordeste 0 -- -- 88
2019-02-14 01:00:00 8.5 0 Calma 2 Sudeste 0 -- -- 91
2019-02-14 00:00:00 8 0 Calma 5 Este 0 -- -- 91
2019-02-13 23:00:00 7.1 0 Calma 4 Este 0 -- -- 96
2019-02-13 22:00:00 5.2 2 Este 4 Nordeste 0 -- -- 94
2019-02-13 21:00:00 6.2 3 Nordeste 5 Norte 0 -- -- 87
2019-02-13 20:00:00 8.9 3 Nordeste 21 Este 0 -- -- 75
2019-02-13 19:00:00 11.5 10 Nordeste 21 Nordeste 0 -- -- 61
2019-02-13 18:00:00 13.8 9 Nordeste 21 Nordeste 0 -- -- 54
2019-02-13 17:00:00 15.3 13 Nordeste 24 Nordeste 0 -- -- 51
2019-02-13 16:00:00 16.2 13 Nordeste 23 Nordeste 0 -- -- 50
2019-02-13 15:00:00 15.5 6 Norte 13 Este 0 -- -- 56
2019-02-13 14:00:00 14.4 3 Norte 12 Norte 0 -- -- 61
2019-02-13 13:00:00 12.9 6 Norte 13 Nordeste 0 -- -- 67
2019-02-13 12:00:00 11.4 6 Nordeste 15 Nordeste 0 -- -- 78
2019-02-13 11:00:00 9 7 Nordeste 11 Nordeste 0 -- -- 94
2019-02-13 10:00:00 7.3 4 Nordeste 7 Nordeste 0 -- -- 100
2019-02-13 09:00:00 6.2 4 Nordeste 6 Nordeste 0 -- -- 100
2019-02-13 08:00:00 5.2 3 Norte 10 Este 0 -- -- 98
2019-02-13 07:00:00 4.9 5 Este 8 Nordeste 0 -- -- 100
2019-02-13 06:00:00 3.9 5 Nordeste 7 Este 0 -- -- 99
2019-02-13 05:00:00 4.3 3 Nordeste 6 Nordeste 0 -- -- 99
2019-02-13 04:00:00 3.6 3 Nordeste 4 Nordeste 0 -- -- 99
2019-02-13 03:00:00 3.4 0 Calma 3 Este 0 -- -- 98
2019-02-13 02:00:00 4 0 Calma 6 Sudeste 0 -- -- 97
2019-02-13 01:00:00 4.8 0 Calma 7 Sudeste 0 -- -- 96
2019-02-13 00:00:00 5.2 4 Sur 6 Sur 0 -- -- 96
2019-02-12 23:00:00 6 2 Este 6 Este 0 -- -- 95
2019-02-12 22:00:00 6.8 4 Este 6 Este 0 -- -- 93
2019-02-12 21:00:00 8.1 0 Calma 8 Oeste 0 -- -- 91
2019-02-12 20:00:00 9.2 3 Sudoeste 7 Oeste 0 -- -- 83
2019-02-12 19:00:00 11.7 6 Sudeste 15 Sudeste 0 -- -- 68
2019-02-12 18:00:00 13.6 2 Sudeste 6 Sur 0 -- -- 65
2019-02-12 17:00:00 14.8 0 Calma 8 Noroeste 0 -- -- 56
2019-02-12 16:00:00 15 4 Sudoeste 9 Sudoeste 0 -- -- 56
2019-02-12 15:00:00 15.1 5 Sudoeste 15 Sudeste 0 -- -- 54
2019-02-12 14:00:00 14.8 8 Nordeste 18 Nordeste 0 -- -- 57
2019-02-12 13:00:00 14.4 7 Norte 18 Nordeste 0 -- -- 59
2019-02-12 12:00:00 13.3 12 Nordeste 19 Nordeste 0 -- -- 67
2019-02-12 11:00:00 12.4 6 Nordeste 12 Nordeste 0 -- -- 73
2019-02-12 10:00:00 9.8 5 Nordeste 8 Nordeste 0 -- -- 88
2019-02-12 09:00:00 5.9 4 Nordeste 5 Nordeste 0 -- -- 98
2019-02-12 08:00:00 5.1 0 Calma 4 Norte 0 -- -- 96
2019-02-12 07:00:00 6.5 3 Nordeste 6 Nordeste 0 -- -- 94
2019-02-12 06:00:00 7.3 2 Nordeste 4 Nordeste 0 -- -- 95
2019-02-12 05:00:00 7.9 2 Nordeste 8 Nordeste 0 -- -- 93
2019-02-12 04:00:00 8 5 Este 9 Nordeste 0 -- -- 93
2019-02-12 03:00:00 8.6 4 Este 5 Este 0 -- -- 93
2019-02-12 02:00:00 9.9 3 Norte 7 Nordeste 0 -- -- 89
2019-02-12 01:00:00 11.2 3 Nordeste 14 Nordeste 0 -- -- 85
2019-02-12 00:00:00 12 7 Nordeste 13 Norte 0 -- -- 81
2019-02-11 23:00:00 12.6 6 Nordeste 16 Nordeste 0 -- -- 79
2019-02-11 22:00:00 12.6 7 Nordeste 15 Nordeste 0 -- -- 79
2019-02-11 21:00:00 12.9 9 Nordeste 16 Norte 0 -- -- 80
2019-02-11 20:00:00 12.8 3 Este 14 Nordeste 0 -- -- 83
2019-02-11 19:00:00 13.2 4 Sur 9 Norte 0 -- -- 77
2019-02-11 18:00:00 15.7 8 Norte 18 Nordeste 0 -- -- 66
2019-02-11 17:00:00 16.8 7 Norte 22 Nordeste 0 -- -- 60
2019-02-11 16:00:00 17.7 13 Nordeste 25 Nordeste 0 -- -- 60
2019-02-11 15:00:00 18.3 12 Nordeste 20 Nordeste 0 -- -- 48
2019-02-11 14:00:00 18.5 12 Nordeste 28 Nordeste 0 -- -- 48
2019-02-11 13:00:00 19.9 11 Nordeste 25 Nordeste 0 -- -- 44
2019-02-11 12:00:00 18.6 13 Nordeste 22 Nordeste 0 -- -- 48
2019-02-11 11:00:00 17.4 12 Nordeste 22 Nordeste 0 -- -- 52
2019-02-11 10:00:00 14.2 8 Nordeste 18 Nordeste 0 -- -- 63
2019-02-11 09:00:00 7 6 Nordeste 9 Nordeste 0 -- -- 86
2019-02-11 08:00:00 5.1 2 Oeste 9 Nordeste 0 -- -- 90
2019-02-11 07:00:00 7.3 8 Sur 13 Sur 0 -- -- 86
2019-02-11 06:00:00 6.4 5 Sudoeste 13 Este 0 -- -- 82
2019-02-11 05:00:00 6.2 5 Nordeste 10 Este 0 -- -- 84
2019-02-11 04:00:00 5.9 3 Sur 9 Sudeste 0 -- -- 86
2019-02-11 03:00:00 6.7 2 Este 11 Sur 0 -- -- 82
2019-02-11 02:00:00 7.4 3 Sudoeste 7 Norte 0 -- -- 79
2019-02-11 01:00:00 9.8 9 Nordeste 15 Este 0 -- -- 68
2019-02-11 00:00:00 8 4 Sudeste 10 Norte 0 -- -- 76
2019-02-10 23:00:00 9.3 4 Sur 11 Oeste 0 -- -- 70
2019-02-10 22:00:00 12 6 Este 11 Nordeste 0 -- -- 57
2019-02-10 21:00:00 14.2 4 Norte 21 Este 0 -- -- 50
2019-02-10 20:00:00 14.5 11 Este 24 Nordeste 0 -- -- 47
2019-02-10 19:00:00 15.4 7 Nordeste 19 Norte 0 -- -- 45
2019-02-10 18:00:00 17.3 9 Norte 21 Norte 0 -- -- 41
2019-02-10 17:00:00 18.1 11 Norte 26 Norte 0 -- -- 39
2019-02-10 16:00:00 18.8 13 Norte 24 Norte 0 -- -- 36
2019-02-10 15:00:00 19.6 7 Norte 22 Este 0 -- -- 33
2019-02-10 14:00:00 19.1 11 Nordeste 18 Norte 0 -- -- 34
2019-02-10 13:00:00 18.3 9 Nordeste 16 Este 0 -- -- 36
2019-02-10 12:00:00 15.8 8 Nordeste 17 Nordeste 0 -- -- 40
2019-02-10 11:00:00 15.2 6 Nordeste 17 Norte 0 -- -- 40
2019-02-10 10:00:00 10.5 4 Norte 14 Nordeste 0 -- -- 63
2019-02-10 09:00:00 6.1 5 Norte 6 Norte 0 -- -- 83
2019-02-10 08:00:00 3.9 3 Sur 8 Sur 0 -- -- 91
2019-02-10 07:00:00 3.1 3 Sur 12 Sudoeste 0 -- -- 91
2019-02-10 06:00:00 2.8 8 Sudoeste 12 Sur 0 -- -- 94
2019-02-10 05:00:00 3.3 8 Sudoeste 12 Sudoeste 0 -- -- 94
2019-02-10 04:00:00 4.1 4 Sudoeste 12 Sudoeste 0 -- -- 92
2019-02-10 03:00:00 4.3 4 Sudoeste 12 Sur 0 -- -- 92
2019-02-10 02:00:00 5.1 7 Sudoeste 9 Sudoeste 0 -- -- 92
2019-02-10 01:00:00 5.6 6 Sur 14 Sudoeste 0 -- -- 90
2019-02-10 00:00:00 7.3 12 Sudoeste 16 Sudoeste 0 -- -- 95
2019-02-09 23:00:00 7.7 12 Sudoeste 17 Sur 0 -- -- 92
2019-02-09 22:00:00 8.5 9 Sur 15 Sudoeste 0 -- -- 90
2019-02-09 21:00:00 9.7 9 Sudoeste 18 Sudoeste 0 -- -- 81
2019-02-09 20:00:00 11.5 9 Sudoeste 27 Sudoeste 0 -- -- 70
2019-02-09 19:00:00 13.3 15 Sudoeste 29 Sudoeste 0 -- -- 66
2019-02-09 18:00:00 16.9 15 Oeste 24 Oeste 0 -- -- 49
2019-02-09 17:00:00 19.8 13 Sudoeste 27 Sudoeste 0 -- -- 42
2019-02-09 16:00:00 22 13 Sur 24 Sudoeste 0 -- -- 34
2019-02-09 15:00:00 20.6 4 Nordeste 16 Sudeste 0 -- -- 33
2019-02-09 14:00:00 20.3 5 Nordeste 13 Este 0 -- -- 35
2019-02-09 13:00:00 19 6 Nordeste 14 Nordeste 0 -- -- 36
2019-02-09 12:00:00 17.8 6 Nordeste 14 Nordeste 0 -- -- 39
2019-02-09 11:00:00 16.3 5 Nordeste 13 Este 0 -- -- 41
2019-02-09 10:00:00 14 4 Nordeste 12 Este 0 -- -- 48
2019-02-09 09:00:00 9.5 9 Este 19 Este 0 -- -- 64
2019-02-09 08:00:00 5.4 5 Nordeste 12 Este 0 -- -- 97
2019-02-09 07:00:00 3.2 5 Sudoeste 13 Sur 0 -- -- 97
2019-02-09 06:00:00 3.2 6 Sur 11 Sur 0 -- -- 98
2019-02-09 05:00:00 3.7 6 Sudoeste 9 Sur 0 -- -- 98
2019-02-09 04:00:00 4.3 6 Sudoeste 9 Sudoeste 0 -- -- 98
2019-02-09 03:00:00 4.8 5 Sudoeste 8 Sudoeste 0 -- -- 97
2019-02-09 02:00:00 5.5 3 Sudoeste 10 Sudoeste 0 -- -- 96
2019-02-09 01:00:00 6.8 5 Sudoeste 9 Sudoeste 0 -- -- 95
2019-02-09 00:00:00 7.1 3 Sudoeste 14 Sur 0 -- -- 92
2019-02-08 23:00:00 10 6 Sudoeste 21 Sudoeste 0 -- -- 89
2019-02-08 22:00:00 9.4 6 Sudoeste 15 Oeste 0 -- -- 93
2019-02-08 21:00:00 10.5 10 Sudoeste 22 Sudoeste 0 -- -- 90
2019-02-08 20:00:00 11.4 11 Sudoeste 20 Sudoeste 0 -- -- 84
2019-02-08 19:00:00 12.8 8 Sudoeste 21 Sudoeste 0 -- -- 75
2019-02-08 18:00:00 16 14 Sudoeste 24 Sudoeste 0 -- -- 62
2019-02-08 17:00:00 20 12 Sudoeste 20 Sudoeste 0 -- -- 46
2019-02-08 16:00:00 21.2 5 Sudeste 17 Oeste 0 -- -- 39
2019-02-08 15:00:00 21 7 Sudoeste 15 Sudoeste 0 -- -- 38
2019-02-08 14:00:00 17.9 4 Norte 9 Oeste 0 -- -- 45
2019-02-08 13:00:00 16.6 2 Noroeste 10 Nordeste 0 -- -- 47
2019-02-08 12:00:00 14.6 6 Nordeste 12 Norte 0 -- -- 52
2019-02-08 11:00:00 11.3 5 Nordeste 9 Nordeste 0 -- -- 66
2019-02-08 10:00:00 7.4 3 Norte 5 Nordeste 0 -- -- 89
2019-02-08 09:00:00 4.4 3 Nordeste 6 Nordeste 0 -- -- 97
2019-02-08 08:00:00 4.8 6 Nordeste 8 Nordeste 0 -- -- 98
2019-02-08 07:00:00 4.9 5 Nordeste 6 Nordeste 0 -- -- 98
2019-02-08 06:00:00 4.4 3 Nordeste 5 Nordeste 0 -- -- 96
2019-02-08 05:00:00 4.8 3 Nordeste 6 Sur 0 -- -- 95
2019-02-08 04:00:00 6 5 Sur 8 Nordeste 0 -- -- 95
2019-02-08 03:00:00 8.1 8 Nordeste 11 Este 0 -- -- 95
2019-02-08 02:00:00 7.7 7 Nordeste 11 Nordeste 0 -- -- 93
2019-02-08 01:00:00 8.6 9 Nordeste 12 Este 0 -- -- 93
2019-02-08 00:00:00 9.9 9 Nordeste 14 Nordeste 0 -- -- 87
2019-02-07 23:00:00 9.8 8 Este 10 Nordeste 0 -- -- 78
2019-02-07 22:00:00 9.2 8 Este 10 Este 0 -- -- 72
2019-02-07 21:00:00 10.3 4 Nordeste 11 Este 0 -- -- 67
2019-02-07 20:00:00 11.5 9 Sur 15 Sur 0 -- -- 58
2019-02-07 19:00:00 14.8 8 Sudoeste 18 Oeste 0 -- -- 49
2019-02-07 18:00:00 18.6 9 Sudoeste 19 Sudoeste 0 -- -- 40
2019-02-07 17:00:00 22.1 7 Nordeste 14 Nordeste 0 -- -- 26
2019-02-07 16:00:00 22.7 7 Nordeste 19 Norte 0 -- -- 25
2019-02-07 15:00:00 21.9 8 Norte 21 Norte 0 -- -- 29
2019-02-07 14:00:00 20.9 12 Norte 19 Norte 0 -- -- 30
2019-02-07 13:00:00 19.6 10 Norte 18 Norte 0 -- -- 35
2019-02-07 12:00:00 18.8 9 Norte 17 Noroeste 0 -- -- 38
2019-02-07 11:00:00 17.2 6 Norte 19 Este 0 -- -- 41
2019-02-07 10:00:00 15.3 8 Este 19 Este 0 -- -- 46
2019-02-07 09:00:00 12 8 Este 15 Este 0 -- -- 52
2019-02-07 08:00:00 11.9 10 Este 17 Este 0 -- -- 50
2019-02-07 07:00:00 12.3 8 Este 16 Este 0 -- -- 48
2019-02-07 06:00:00 9.7 10 Este 17 Este 0 -- -- 62
2019-02-07 05:00:00 5.1 3 Sur 9 Sudoeste 0 -- -- 89
2019-02-07 04:00:00 4.5 5 Sudoeste 10 Sur 0 -- -- 88
2019-02-07 03:00:00 4.9 7 Sudoeste 10 Sudoeste 0 -- -- 86
2019-02-07 02:00:00 6.3 3 Sudoeste 6 Sur 0 -- -- 79
2019-02-07 01:00:00 6.6 6 Sur 15 Sur 0 -- -- 79
2019-02-07 00:00:00 6.7 4 Sur 10 Sudoeste 0 -- -- 82
2019-02-06 23:00:00 8 8 Sudoeste 15 Sudoeste 0 -- -- 78
2019-02-06 22:00:00 8.7 11 Sur 14 Sur 0 -- -- 76
2019-02-06 21:00:00 10.3 8 Sudoeste 14 Sudoeste 0 -- -- 71
2019-02-06 20:00:00 13.5 5 Sudoeste 24 Sur 0 -- -- 55
2019-02-06 19:00:00 16.2 16 Sur 29 Sur 0 -- -- 44
2019-02-06 18:00:00 17.8 18 Sudoeste 29 Sudoeste 0 -- -- 40
2019-02-06 17:00:00 19.9 12 Sudoeste 29 Sudoeste 0 -- -- 36
2019-02-06 16:00:00 21.8 15 Sudoeste 26 Sudoeste 0 -- -- 35
2019-02-06 15:00:00 22 8 Sudoeste 16 Sudoeste 0 -- -- 35
2019-02-06 14:00:00 20.1 6 Oeste 15 Noroeste 0 -- -- 37
2019-02-06 13:00:00 19.4 4 Sudoeste 8 Norte 0 -- -- 37
2019-02-06 12:00:00 16.6 3 Oeste 7 Oeste 0 -- -- 47
2019-02-06 11:00:00 12.8 3 Oeste 6 Noroeste 0 -- -- 56
2019-02-06 10:00:00 8.7 2 Oeste 6 Sudeste 0 -- -- 70
2019-02-06 09:00:00 4 5 Sudoeste 7 Sur 0 -- -- 88
2019-02-06 08:00:00 3.8 0 Calma 7 Sur 0 -- -- 89
2019-02-06 07:00:00 4.3 3 Sur 9 Sur 0 -- -- 85
2019-02-06 06:00:00 4.8 2 Noroeste 8 Sudoeste 0 -- -- 86
2019-02-06 05:00:00 5.3 3 Sudoeste 12 Nordeste 0 -- -- 79
2019-02-06 04:00:00 5.6 3 Sur 12 Oeste 0 -- -- 77
2019-02-06 03:00:00 5.4 4 Sudoeste 10 Noroeste 0 -- -- 81
2019-02-06 02:00:00 5.9 5 Sudoeste 10 Oeste 0 -- -- 78
2019-02-06 01:00:00 5.9 3 Sur 10 Noroeste 0 -- -- 79
2019-02-06 00:00:00 5.7 6 Sur 9 Sudoeste 0 -- -- 83
2019-02-05 23:00:00 6.8 7 Sudoeste 10 Sur 0 -- -- 83
2019-02-05 22:00:00 7.7 8 Sur 11 Sur 0 -- -- 80
2019-02-05 21:00:00 9 9 Sudoeste 17 Sur 0 -- -- 72
2019-02-05 20:00:00 10.6 8 Sudoeste 17 Sudoeste 0 -- -- 62
2019-02-05 19:00:00 13.3 8 Sudoeste 18 Sudoeste 0 -- -- 48
2019-02-05 18:00:00 17 8 Sudoeste 19 Sudoeste 0 -- -- 37
2019-02-05 17:00:00 19.7 12 Sudoeste 22 Sudoeste 0 -- -- 32
2019-02-05 16:00:00 20.2 12 Nordeste 23 Norte 0 -- -- 28
2019-02-05 15:00:00 20.1 14 Norte 24 Nordeste 0 -- -- 28
2019-02-05 14:00:00 19.9 11 Norte 18 Noroeste 0 -- -- 27
2019-02-05 13:00:00 18.7 12 Norte 22 Noroeste 0 -- -- 28
2019-02-05 12:00:00 17.7 6 Nordeste 17 Este 0 -- -- 30
2019-02-05 11:00:00 15.9 6 Este 16 Este 0 -- -- 29
2019-02-05 10:00:00 12.8 9 Nordeste 16 Nordeste 0 -- -- 32
2019-02-05 09:00:00 8 9 Nordeste 16 Nordeste 0 -- -- 44
2019-02-05 08:00:00 1.9 2 Oeste 9 Sudoeste 0 -- -- 80
2019-02-05 07:00:00 3 4 Oeste 12 Nordeste 0 -- -- 74
2019-02-05 06:00:00 1.9 4 Sudoeste 10 Oeste 0 -- -- 81
2019-02-05 05:00:00 1.8 3 Sudoeste 8 Sudoeste 0 -- -- 84
2019-02-05 04:00:00 2.5 5 Sudoeste 11 Noroeste 0 -- -- 85
2019-02-05 03:00:00 2.7 5 Sudoeste 10 Sudoeste 0 -- -- 88
2019-02-05 02:00:00 3.4 5 Sudoeste 14 Sur 0 -- -- 86
2019-02-05 01:00:00 3.6 7 Sudoeste 12 Sudoeste 0 -- -- 89
2019-02-05 00:00:00 4 5 Sudoeste 12 Sudoeste 0 -- -- 89
2019-02-04 23:00:00 4.4 9 Sudoeste 12 Sudoeste 0 -- -- 90
2019-02-04 22:00:00 5.9 5 Sudoeste 14 Sudoeste 0 -- -- 84
2019-02-04 21:00:00 8.2 8 Sudoeste 16 Oeste 0 -- -- 75
2019-02-04 20:00:00 10.1 8 Sudoeste 18 Sudoeste 0 -- -- 64
2019-02-04 19:00:00 11.2 9 Sudoeste 19 Sudoeste 0 -- -- 58
2019-02-04 18:00:00 13.5 11 Sudoeste 26 Sur 0 -- -- 43
2019-02-04 17:00:00 15.7 16 Sudoeste 26 Sur 0 -- -- 29
2019-02-04 16:00:00 17.8 4 Sudoeste 10 Sur 0 -- -- 21
2019-02-04 15:00:00 16.4 5 Nordeste 13 Nordeste 0 -- -- 22
2019-02-04 14:00:00 15.9 10 Nordeste 18 Nordeste 0 -- -- 23
2019-02-04 13:00:00 14.4 10 Norte 23 Nordeste 0 -- -- 25
2019-02-04 12:00:00 13.3 10 Norte 23 Nordeste 0 -- -- 26
2019-02-04 11:00:00 11.6 11 Norte 18 Norte 0 -- -- 29
2019-02-04 10:00:00 9.6 6 Nordeste 23 Este 0 -- -- 34
2019-02-04 09:00:00 6.6 9 Este 22 Este 0 -- -- 41
2019-02-04 08:00:00 6.2 13 Este 18 Este 0 -- -- 41
2019-02-04 07:00:00 6.1 8 Norte 14 Norte 0 -- -- 43
2019-02-04 06:00:00 6.2 8 Nordeste 20 Nordeste 0 -- -- 45
2019-02-04 05:00:00 6.8 10 Nordeste 20 Nordeste 0 -- -- 44
2019-02-04 04:00:00 7.3 9 Norte 21 Norte 0 -- -- 43
2019-02-04 03:00:00 6.7 9 Este 16 Norte 0 -- -- 45
2019-02-04 02:00:00 7 11 Este 20 Nordeste 0 -- -- 45
2019-02-04 01:00:00 8 10 Nordeste 26 Norte 0 -- -- 41
2019-02-04 00:00:00 8.5 13 Norte 24 Noroeste 0 -- -- 40
2019-02-03 23:00:00 8.7 12 Norte 24 Norte 0 -- -- 38
2019-02-03 22:00:00 9.3 12 Norte 24 Norte 0 -- -- 36
2019-02-03 21:00:00 9.9 9 Noroeste 32 Norte 0 -- -- 34
2019-02-03 20:00:00 10.3 12 Noroeste 28 Norte 0 -- -- 32
2019-02-03 19:00:00 10.7 14 Norte 39 Noroeste 0 -- -- 31
2019-02-03 18:00:00 11.7 22 Norte 47 Noroeste 0 -- -- 28
2019-02-03 17:00:00 12.2 21 Noroeste 53 Noroeste 0 -- -- 28
2019-02-03 16:00:00 12.4 23 Norte 49 Norte 0 -- -- 28
2019-02-03 15:00:00 12.1 26 Norte 45 Norte 0 -- -- 28
2019-02-03 14:00:00 11.6 28 Noroeste 50 Norte 0 -- -- 28
2019-02-03 13:00:00 11.3 30 Norte 56 Norte 0 -- -- 26
2019-02-03 12:00:00 10.6 28 Norte 61 Norte 0 -- -- 29
2019-02-03 11:00:00 9.5 30 Norte 58 Norte 0 -- -- 31
2019-02-03 10:00:00 8.3 25 Norte 55 Norte 0 -- -- 37
2019-02-03 09:00:00 7.3 19 Norte 41 Norte 0 -- -- 40
2019-02-03 08:00:00 7.4 17 Norte 36 Noroeste 0 -- -- 40
2019-02-03 07:00:00 7.5 14 Norte 41 Noroeste 0 -- -- 41
2019-02-03 06:00:00 7.9 18 Norte 35 Norte 0 -- -- 42
2019-02-03 05:00:00 7.9 13 Norte 27 Norte 0 -- -- 42
2019-02-03 04:00:00 7.7 9 Norte 22 Norte 0 -- -- 42
2019-02-03 03:00:00 7.9 9 Nordeste 21 Norte 0 -- -- 41
2019-02-03 02:00:00 8.1 8 Oeste 28 Oeste 0 -- -- 39
2019-02-03 01:00:00 8.4 10 Noroeste 28 Noroeste 0 -- -- 37
2019-02-03 00:00:00 8.8 15 Norte 35 Noroeste 0 -- -- 39
2019-02-02 23:00:00 9.1 17 Noroeste 42 Noroeste 0 -- -- 38
2019-02-02 22:00:00 9.6 17 Noroeste 39 Noroeste 0 -- -- 38
2019-02-02 21:00:00 9.4 10 Noroeste 36 Noroeste 0 -- -- 40
2019-02-02 20:00:00 10.7 16 Noroeste 49 Noroeste 0 -- -- 36
2019-02-02 19:00:00 11.5 22 Noroeste 46 Noroeste 0 -- -- 30
2019-02-02 18:00:00 12.4 25 Noroeste 48 Norte 0 -- -- 27
2019-02-02 17:00:00 12.5 14 Noroeste 46 Noroeste 0 -- -- 28
2019-02-02 16:00:00 13.2 22 Noroeste 48 Noroeste 0 -- -- 30
2019-02-02 15:00:00 13.8 24 Noroeste 51 Noroeste 0 -- -- 30
2019-02-02 14:00:00 13.5 26 Noroeste 49 Noroeste 0 -- -- 31
2019-02-02 13:00:00 13.5 17 Noroeste 58 Noroeste 0 -- -- 32
2019-02-02 12:00:00 12.1 28 Noroeste 48 Noroeste 0 -- -- 36
2019-02-02 11:00:00 11.7 17 Noroeste 44 Noroeste 0 -- -- 37
2019-02-02 10:00:00 11.3 8 Noroeste 24 Oeste 0 -- -- 42
2019-02-02 09:00:00 9.2 3 Nordeste 26 Nordeste 0 -- -- 49
2019-02-02 08:00:00 9.9 5 Noroeste 47 Oeste 0 -- -- 45
2019-02-02 07:00:00 10.4 19 Oeste 50 Oeste 0 -- -- 43
2019-02-02 06:00:00 10.6 23 Oeste 49 Oeste 0 -- -- 42
2019-02-02 05:00:00 10.5 5 Oeste 51 Oeste 0 -- -- 40
2019-02-02 04:00:00 9.8 7 Oeste 20 Oeste 0 -- -- 44
2019-02-02 03:00:00 7.9 3 Sudeste 17 Sur 0 -- -- 61
2019-02-02 02:00:00 9.2 8 Sudoeste 30 Sur 0 -- -- 57
2019-02-02 01:00:00 10.1 15 Sur 33 Sur 0 -- -- 45
2019-02-02 00:00:00 10.4 15 Sur 32 Sur 0 -- -- 48
2019-02-01 23:00:00 11.7 7 Sudoeste 20 Noroeste 0 -- -- 47
2019-02-01 22:00:00 11.7 9 Sur 41 Sudoeste 0 -- -- 53
2019-02-01 21:00:00 13.2 9 Oeste 37 Sudoeste 0 -- -- 46
2019-02-01 20:00:00 13.9 13 Sudoeste 35 Sudoeste 0 -- -- 37
2019-02-01 19:00:00 13.7 21 Sur 53 Sur 0 -- -- 38
2019-02-01 18:00:00 14.4 28 Sudoeste 53 Sur 0 -- -- 41
2019-02-01 17:00:00 17.1 23 Sudoeste 51 Sudoeste 0 -- -- 30
2019-02-01 16:00:00 19.3 19 Sudoeste 42 Oeste 0 -- -- 33
2019-02-01 15:00:00 19.8 18 Oeste 49 Oeste 0 -- -- 31
2019-02-01 14:00:00 19.8 26 Sudoeste 50 Oeste 0 -- -- 30
2019-02-01 13:00:00 20.2 29 Sudoeste 56 Sudoeste 0 -- -- 34
2019-02-01 12:00:00 19.7 13 Sudoeste 39 Sur 0 -- -- 49
2019-02-01 11:00:00 18.5 21 Sur 37 Sur 0 -- -- 54
2019-02-01 10:00:00 16.3 20 Sur 35 Sudoeste 0 -- -- 61
2019-02-01 09:00:00 14.3 12 Sudoeste 21 Sudoeste 0 -- -- 74
2019-02-01 08:00:00 14.4 9 Sudoeste 28 Sur 0 -- -- 69
2019-02-01 07:00:00 14.9 13 Sudoeste 31 Sudoeste 0 -- -- 61
2019-02-01 06:00:00 15.5 7 Sudoeste 27 Sur 0 -- -- 56
2019-02-01 05:00:00 16.3 20 Sur 41 Sur 0 -- -- 51
2019-02-01 04:00:00 16.7 18 Sudoeste 40 Sudoeste 0 -- -- 48
2019-02-01 03:00:00 16.4 23 Sudoeste 50 Sur 0 -- -- 51
2019-02-01 02:00:00 17 33 Sudoeste 60 Sur 0 -- -- 50
2019-02-01 01:00:00 16.5 22 Sur 42 Sudoeste 0 -- -- 54
2019-02-01 00:00:00 15.8 22 Sur 38 Sur 0 -- -- 55
2019-01-31 23:00:00 15.4 17 Sur 26 Sur 0 -- -- 54
2019-01-31 22:00:00 15.3 18 Sur 44 Sudoeste 0 -- -- 56
2019-01-31 21:00:00 16.1 27 Sudoeste 42 Sudoeste 0 -- -- 53
2019-01-31 20:00:00 16.5 22 Sudoeste 46 Sudoeste 0 -- -- 51
2019-01-31 19:00:00 16.7 15 Sur 31 Sudoeste 0 -- -- 47
2019-01-31 18:00:00 19 10 Sudoeste 32 Oeste 0 -- -- 40
2019-01-31 17:00:00 21.2 13 Oeste 29 Sudoeste 0 -- -- 36
2019-01-31 16:00:00 22.1 15 Sudoeste 39 Oeste 0 -- -- 34
2019-01-31 15:00:00 21.9 17 Sudoeste 38 Sudoeste 0 -- -- 38
2019-01-31 14:00:00 20.9 24 Sudoeste 45 Sur 0 -- -- 46
2019-01-31 13:00:00 19.2 26 Sur 41 Sur 0 -- -- 50
2019-01-31 12:00:00 16.5 23 Sur 35 Sudoeste 0 -- -- 57
2019-01-31 11:00:00 16.6 22 Sur 34 Sur 0 -- -- 54
2019-01-31 10:00:00 15 17 Sur 31 Sur 0 -- -- 58
2019-01-31 09:00:00 14.4 15 Sur 24 Sur 0 -- -- 60
2019-01-31 08:00:00 14.3 14 Sur 30 Sur 0 -- -- 59
2019-01-31 07:00:00 14.3 17 Sur 41 Sudoeste 0 -- -- 57
2019-01-31 06:00:00 14.4 21 Sudoeste 41 Sur 0 -- -- 53
2019-01-31 05:00:00 14.2 19 Sudoeste 35 Sur 0 -- -- 52
2019-01-31 04:00:00 14.3 18 Sudoeste 40 Sur 0 -- -- 53
2019-01-31 03:00:00 14.2 12 Sudoeste 37 Sudoeste 0 -- -- 53
2019-01-31 02:00:00 13.4 17 Sudoeste 35 Sur 0 -- -- 54
2019-01-31 01:00:00 13.9 18 Sur 33 Sur 0 -- -- 52
2019-01-31 00:00:00 13.7 19 Sudoeste 33 Sudoeste 0 -- -- 49
2019-01-30 23:00:00 12.2 10 Sur 18 Sur 0 -- -- 51
2019-01-30 22:00:00 10.5 6 Este 10 Sur 0 -- -- 55
2019-01-30 21:00:00 11.6 0 Calma 15 Sur 0 -- -- 52
2019-01-30 20:00:00 11 6 Sudeste 14 Sur 0 -- -- 49
2019-01-30 19:00:00 12.4 9 Este 13 Este 0 -- -- 46
2019-01-30 18:00:00 13.9 8 Este 10 Este 0 -- -- 46
2019-01-30 17:00:00 16.6 6 Nordeste 9 Nordeste 0 -- -- 35
2019-01-30 16:00:00 17.1 8 Nordeste 14 Nordeste 0 -- -- 34
2019-01-30 15:00:00 16.8 4 Nordeste 18 Nordeste 0 -- -- 37
2019-01-30 14:00:00 17.6 4 Sur 15 Este 0 -- -- 37
2019-01-30 13:00:00 15.8 7 Este 13 Nordeste 0 -- -- 42
2019-01-30 12:00:00 15 8 Nordeste 19 Nordeste 0 -- -- 46
2019-01-30 11:00:00 13.6 3 Noroeste 6 Sur 0 -- -- 49
2019-01-30 10:00:00 8.4 3 Oeste 5 Oeste 0 -- -- 75
2019-01-30 09:00:00 6.6 3 Este 10 Noroeste 0 -- -- 83
2019-01-30 08:00:00 6.1 0 Calma 8 Este 0 -- -- 84
2019-01-30 07:00:00 6.6 2 Norte 9 Sudoeste 0 -- -- 83
2019-01-30 06:00:00 7.4 6 Sur 11 Sur 0 -- -- 78
2019-01-30 05:00:00 8 7 Este 14 Sur 0 -- -- 75
2019-01-30 04:00:00 7.5 4 Nordeste 15 Sudoeste 0 -- -- 79
2019-01-30 03:00:00 9 7 Sudeste 15 Este 0 -- -- 70
2019-01-30 02:00:00 8.3 4 Nordeste 10 Este 0 -- -- 75
2019-01-30 01:00:00 10.7 6 Este 9 Este 0 -- -- 63
2019-01-30 00:00:00 11.4 6 Sudeste 11 Sudeste 0 -- -- 61
2019-01-29 23:00:00 11.4 6 Sur 15 Sudoeste 0 -- -- 60
2019-01-29 22:00:00 10.4 7 Sudoeste 15 Sudoeste 0 -- -- 64
2019-01-29 21:00:00 10.8 2 Sudoeste 11 Sur 0 -- -- 62
2019-01-29 20:00:00 12.4 8 Sur 18 Sudoeste 0 -- -- 54
2019-01-29 19:00:00 13.5 5 Oeste 17 Norte 0 -- -- 47
2019-01-29 18:00:00 16.2 18 Norte 32 Noroeste 0 -- -- 41
2019-01-29 17:00:00 17 17 Norte 30 Norte 0 -- -- 41
2019-01-29 16:00:00 19 13 Norte 25 Nordeste 0 -- -- 40
2019-01-29 15:00:00 18.7 15 Sudoeste 30 Sudoeste 0 -- -- 39
2019-01-29 14:00:00 18.6 5 Sudoeste 14 Sudoeste 0 -- -- 38
2019-01-29 13:00:00 16.5 9 Sur 21 Sudoeste 0 -- -- 45
2019-01-29 12:00:00 14.1 0 Calma 10 Oeste 0 -- -- 52
2019-01-29 11:00:00 12.5 5 Sudoeste 12 Este 0 -- -- 58
2019-01-29 10:00:00 9.6 4 Nordeste 10 Este 0 -- -- 65
2019-01-29 09:00:00 7.6 6 Sur 14 Sur 0 -- -- 70
2019-01-29 08:00:00 9.9 5 Nordeste 16 Nordeste 0 -- -- 58
2019-01-29 07:00:00 10.5 6 Nordeste 17 Nordeste 0 -- -- 57
2019-01-29 06:00:00 10.4 8 Este 17 Este 0 -- -- 61
2019-01-29 05:00:00 8.6 8 Nordeste 10 Nordeste 0 -- -- 66
2019-01-29 04:00:00 7.4 3 Nordeste 12 Sudeste 0 -- -- 73
2019-01-29 03:00:00 9.3 3 Sur 14 Sudeste 0 -- -- 65
2019-01-29 02:00:00 10.5 8 Sur 14 Sur 0 -- -- 59
2019-01-29 01:00:00 10.6 11 Sur 17 Sur 0 -- -- 59
2019-01-29 00:00:00 10.1 9 Sur 17 Sur 0 -- -- 59
2019-01-28 23:00:00 12.1 4 Norte 13 Oeste 0 -- -- 52
2019-01-28 22:00:00 11.7 2 Sudeste 14 Norte 0 -- -- 52
2019-01-28 21:00:00 13.4 5 Norte 20 Nordeste 0 -- -- 40
2019-01-28 20:00:00 14.2 9 Nordeste 34 Norte 0 -- -- 38
2019-01-28 19:00:00 15.6 17 Norte 40 Norte 0 -- -- 32
2019-01-28 18:00:00 17.4 22 Norte 51 Norte 0 -- -- 23
2019-01-28 17:00:00 18.8 14 Norte 32 Norte 0 -- -- 24
2019-01-28 16:00:00 20.9 6 Este 15 Sudoeste 0 -- -- 23
2019-01-28 15:00:00 20.5 6 Sur 15 Sur 0 -- -- 25
2019-01-28 14:00:00 19.1 4 Oeste 20 Norte 0 -- -- 27
2019-01-28 13:00:00 17.3 11 Norte 18 Norte 0 -- -- 31
2019-01-28 12:00:00 16.4 10 Sudoeste 23 Sudoeste 0 -- -- 35
2019-01-28 11:00:00 13.8 11 Sudoeste 21 Sudoeste 0 -- -- 38
2019-01-28 10:00:00 10.2 4 Sudoeste 19 Este 0 -- -- 52
2019-01-28 09:00:00 6.9 4 Este 9 Nordeste 0 -- -- 63
2019-01-28 08:00:00 7.6 6 Nordeste 15 Este 0 -- -- 58
2019-01-28 07:00:00 6.5 6 Nordeste 10 Este 0 -- -- 62
2019-01-28 06:00:00 6.8 6 Este 13 Este 0 -- -- 63
2019-01-28 05:00:00 8 9 Este 14 Este 0 -- -- 56
2019-01-28 04:00:00 9 3 Sudoeste 12 Este 0 -- -- 54
2019-01-28 03:00:00 9.6 5 Nordeste 15 Norte 0 -- -- 48
2019-01-28 02:00:00 11.3 7 Nordeste 17 Nordeste 0 -- -- 42
2019-01-28 01:00:00 11.7 6 Nordeste 19 Nordeste 0 -- -- 39
2019-01-28 00:00:00 12 5 Este 29 Este 0 -- -- 37
2019-01-27 23:00:00 12.6 15 Este 30 Nordeste 0 -- -- 36
2019-01-27 22:00:00 11.8 9 Este 17 Nordeste 0 -- -- 40
2019-01-27 21:00:00 12.8 9 Nordeste 22 Norte 0 -- -- 38
2019-01-27 20:00:00 13.6 10 Nordeste 15 Nordeste 0 -- -- 44
2019-01-27 19:00:00 14.5 7 Norte 27 Norte 0 -- -- 41
2019-01-27 18:00:00 15.6 10 Norte 36 Norte 0 -- -- 39
2019-01-27 17:00:00 16.5 17 Norte 42 Noroeste 0 -- -- 37
2019-01-27 16:00:00 17.3 17 Norte 44 Norte 0 -- -- 37
2019-01-27 15:00:00 17.9 25 Norte 42 Norte 0 -- -- 38
2019-01-27 14:00:00 18.1 12 Norte 33 Norte 0 -- -- 38
2019-01-27 13:00:00 19.6 9 Noroeste 27 Norte 0 -- -- 34
2019-01-27 12:00:00 17.7 10 Nordeste 20 Nordeste 0 -- -- 40
2019-01-27 11:00:00 14.6 8 Nordeste 21 Oeste 0 -- -- 45
2019-01-27 10:00:00 7.7 8 Sudeste 16 Nordeste 0 -- -- 71
2019-01-27 09:00:00 3.6 5 Este 13 Noroeste 0 -- -- 97
2019-01-27 08:00:00 2.2 2 Noroeste 13 Sudoeste 0 -- -- 94
2019-01-27 07:00:00 2.9 2 Sur 6 Sudeste 0 -- -- 96
2019-01-27 06:00:00 3.3 4 Sudoeste 14 Sur 0 -- -- 94
2019-01-27 05:00:00 3.6 6 Sudoeste 11 Oeste 0 -- -- 90
2019-01-27 04:00:00 4 2 Sudoeste 8 Sur 0 -- -- 94
2019-01-27 03:00:00 4.3 3 Sudoeste 8 Noroeste 0 -- -- 93
2019-01-27 02:00:00 4.9 4 Sur 7 Sudoeste 0 -- -- 93
2019-01-27 01:00:00 6.4 4 Sudoeste 10 Sudoeste 0 -- -- 88
2019-01-27 00:00:00 8.3 10 Sudoeste 18 Sudoeste 0 -- -- 83
2019-01-26 23:00:00 8.1 8 Sudoeste 17 Sudoeste 0 -- -- 87
2019-01-26 22:00:00 8.5 8 Sudoeste 17 Sudoeste 0 -- -- 87
2019-01-26 21:00:00 9.2 10 Sudoeste 14 Sudoeste 0 -- -- 86
2019-01-26 20:00:00 10.3 6 Sudoeste 13 Sudoeste 0 -- -- 81
2019-01-26 19:00:00 12.5 3 Sudoeste 12 Oeste 0 -- -- 67
2019-01-26 18:00:00 16.3 8 Sudoeste 19 Sudoeste 0 -- -- 54
2019-01-26 17:00:00 19.1 8 Sudoeste 27 Sur 0 -- -- 42
2019-01-26 16:00:00 20.4 6 Sudoeste 22 Sur 0 -- -- 36
2019-01-26 15:00:00 20.1 11 Sudoeste 25 Sudoeste 0 -- -- 38
2019-01-26 14:00:00 19.6 9 Sudoeste 18 Sudoeste 0 -- -- 36
2019-01-26 13:00:00 17.4 2 Nordeste 11 Este 0 -- -- 41
2019-01-26 12:00:00 15.9 3 Este 9 Este 0 -- -- 43
2019-01-26 11:00:00 14.2 4 Nordeste 13 Este 0 -- -- 45
2019-01-26 10:00:00 12.8 5 Este 18 Este 0 -- -- 51
2019-01-26 09:00:00 11.4 9 Este 18 Este 0 -- -- 54
2019-01-26 08:00:00 11.1 4 Nordeste 17 Este 0 -- -- 55
2019-01-26 07:00:00 10.9 6 Nordeste 22 Este 0 -- -- 57
2019-01-26 06:00:00 10.7 5 Este 20 Norte 0 -- -- 58
2019-01-26 05:00:00 11.6 11 Este 21 Este 0 -- -- 54
2019-01-26 04:00:00 12.5 5 Nordeste 19 Nordeste 0 -- -- 52
2019-01-26 03:00:00 13.2 8 Nordeste 26 Este 0 -- -- 51
2019-01-26 02:00:00 13.5 7 Nordeste 26 Nordeste 0 -- -- 50
2019-01-26 01:00:00 14.7 10 Nordeste 22 Nordeste 0 -- -- 46
2019-01-26 00:00:00 14.9 11 Nordeste 22 Nordeste 0 -- -- 46
2019-01-25 23:00:00 15.5 12 Nordeste 23 Nordeste 0 -- -- 45
2019-01-25 22:00:00 15.1 10 Nordeste 19 Nordeste 0 -- -- 48
2019-01-25 21:00:00 15.7 6 Nordeste 16 Norte 0 -- -- 47
2019-01-25 20:00:00 16.6 9 Nordeste 22 Sudeste 0 -- -- 45
2019-01-25 19:00:00 16.4 6 Este 22 Norte 0 -- -- 45
2019-01-25 18:00:00 17.8 9 Norte 24 Norte 0 -- -- 42
2019-01-25 17:00:00 19.2 10 Norte 33 Noroeste 0 -- -- 38
2019-01-25 16:00:00 19.6 18 Norte 31 Norte 0 -- -- 36
2019-01-25 15:00:00 19.7 18 Noroeste 39 Norte 0 -- -- 35
2019-01-25 14:00:00 19.5 18 Norte 37 Norte 0 -- -- 35
2019-01-25 13:00:00 18.9 22 Norte 40 Norte 0 -- -- 37
2019-01-25 12:00:00 17.8 24 Norte 43 Noroeste 0 -- -- 40
2019-01-25 11:00:00 17.2 12 Norte 35 Norte 0 -- -- 42
2019-01-25 10:00:00 15.5 3 Este 22 Norte 0 -- -- 47
2019-01-25 09:00:00 13.3 12 Este 21 Este 0 -- -- 56
2019-01-25 08:00:00 13.1 8 Norte 22 Norte 0 -- -- 56
2019-01-25 07:00:00 13.2 12 Norte 28 Norte 0 -- -- 56
2019-01-25 06:00:00 12.4 11 Nordeste 21 Norte 0 -- -- 58
2019-01-25 05:00:00 11.7 10 Nordeste 17 Nordeste 0 -- -- 60
2019-01-25 04:00:00 13 11 Nordeste 19 Este 0 -- -- 55
2019-01-25 03:00:00 12.4 9 Este 17 Nordeste 0 -- -- 58
2019-01-25 02:00:00 12.9 5 Este 14 Nordeste 0 -- -- 57
2019-01-25 01:00:00 12.4 6 Nordeste 14 Nordeste 0 -- -- 59
2019-01-25 00:00:00 13 9 Nordeste 27 Norte 0 -- -- 57
2019-01-24 23:00:00 13.5 9 Nordeste 17 Este 0 -- -- 56
2019-01-24 22:00:00 14 10 Nordeste 18 Nordeste 0 -- -- 56
2019-01-24 21:00:00 15.6 12 Nordeste 33 Norte 0 -- -- 50
2019-01-24 20:00:00 16.4 19 Norte 38 Norte 0 -- -- 49
2019-01-24 19:00:00 16.5 15 Norte 30 Norte 0 -- -- 51
2019-01-24 18:00:00 16.5 11 Norte 33 Noroeste 0 -- -- 51
2019-01-24 17:00:00 17.3 16 Norte 39 Noroeste 0 -- -- 47
2019-01-24 16:00:00 18.7 20 Noroeste 43 Noroeste 0 -- -- 42
2019-01-24 15:00:00 18.9 21 Noroeste 51 Noroeste 0 -- -- 40
2019-01-24 14:00:00 18.6 27 Norte 56 Norte 0 -- -- 38
2019-01-24 13:00:00 18.8 31 Norte 63 Noroeste 0 -- -- 36
2019-01-24 12:00:00 17.7 17 Norte 39 Nordeste 0 -- -- 43
2019-01-24 11:00:00 16.8 21 Norte 41 Norte 0 -- -- 46
2019-01-24 10:00:00 15.9 18 Norte 43 Norte 0 -- -- 47
2019-01-24 09:00:00 15.4 23 Norte 39 Norte 0 -- -- 47
2019-01-24 08:00:00 14.8 12 Norte 28 Noroeste 0 -- -- 49
2019-01-24 07:00:00 14.7 11 Norte 34 Norte 0 -- -- 49
2019-01-24 06:00:00 14.5 11 Norte 27 Noroeste 0 -- -- 50
2019-01-24 05:00:00 11.6 9 Nordeste 14 Nordeste 0 -- -- 61
2019-01-24 04:00:00 12.6 13 Sur 23 Sur 0 -- -- 57
2019-01-24 03:00:00 11.8 12 Sur 18 Sur 0 -- -- 61
2019-01-24 02:00:00 13.3 5 Sur 28 Sur 0 -- -- 56
2019-01-24 01:00:00 13.8 16 Sur 32 Sur 0 -- -- 54
2019-01-24 00:00:00 14.5 21 Sur 34 Sur 0 -- -- 51